Monett, MO

1:04 PM CDT on March 31, 2015 (GMT -0500)
Joplin Regional | | Change Station
CLOSE
Current Station
Airport
Location: Joplin,
Elevation: 981 ft
Nearby Weather Stations

Elev 981 ft 37.15 °N, 94.50 °W | Updated 11 minutes ago

Mostly Cloudy
Mostly Cloudy
71 °F
Feels Like 71 °F
N
8
Wind Variable Wind from North

Today
High -- | Low -- °F
--% Chance of Precip.
Yesterday
High -- | Low -- °F
Precip. -- in
7:03 AM 7:37 PM
Waxing Gibbous, 88% visible
Pressure 29.97 in
Visibility 9.0 miles
Clouds Mostly Cloudy 2700 ft
Dew Point 58 °F
Humidity 63%
Rainfall 0.00 in
Snow Depth Not available.
UV 5 out of 12
Pollen 10.70 out of 12
Air Quality Not available.
Flu Activity Not available.
METAR KJLN 311753Z 35007KT 320V020 9SM BKN027 22/14 A2998 RMK AO2 SLP147 T02170144 10217 20144 58001

More Conditions Fewer Conditions

Pressure 29.97 in
Visibility 9.0 miles
Clouds Mostly Cloudy 2700 ft
Dew Point 58 °F
Humidity 63%
Rainfall 0.00 in
Snow Depth Not available.
UV 5 out of 12
Pollen 10.70 out of 12
Air Quality Not available.
Flu Activity Not available.
METAR KJLN 311753Z 35007KT 320V020 9SM BKN027 22/14 A2998 RMK AO2 SLP147 T02170144 10217 20144 58001

More Conditions Fewer Conditions

10-Day Weather Forecast

Almanac

Astronomy

Mar. 31, 2015 Rise Set
Actual Time
Civil Twilight
Nautical Twilight
Astronomical Twilight
Moon
Length of Visible Light
Length of Day
Tomorrow will be .
, % of the Moon is Illuminated

Today's Extremes

State Highs State Lows

Community

WunderPhotos

Upload Photos

1,809,786 photos uploaded!

WunderBlogs® & News

Nearby

Air Quality

  Air Quality AQ Index Pollutant
Not available.

Snow Depth

Station Depth Elevation

Earthquake Activity

City Distance Mag. Time & Date
Minimum magnitude displayed is 2.5.

Coastal Water Temperatures

Place Temperature

Stations

Nearby Weather Stations

Station Location Temp. Windchill Dew Point Humidity Wind Precip. Elev Updated Type